sensor_id;sensor_type;location;lat;lon;timestamp;temperature;humidity
18103;DHT22;9178;51.120;6.192;2023-04-05T00:02:19;1.60;99.90
18103;DHT22;9178;51.120;6.192;2023-04-05T00:04:46;1.60;99.90
18103;DHT22;9178;51.120;6.192;2023-04-05T00:07:17;1.60;99.90
18103;DHT22;9178;51.120;6.192;2023-04-05T00:09:47;1.50;99.90
18103;DHT22;9178;51.120;6.192;2023-04-05T00:12:14;1.50;99.90
18103;DHT22;9178;51.120;6.192;2023-04-05T00:14:41;1.50;99.90
18103;DHT22;9178;51.120;6.192;2023-04-05T00:17:08;1.50;99.90
18103;DHT22;9178;51.120;6.192;2023-04-05T00:19:35;1.40;99.90
18103;DHT22;9178;51.120;6.192;2023-04-05T00:22:02;1.40;99.90
18103;DHT22;9178;51.120;6.192;2023-04-05T00:24:29;1.30;99.90
18103;DHT22;9178;51.120;6.192;2023-04-05T00:26:59;1.30;99.90
18103;DHT22;9178;51.120;6.192;2023-04-05T00:29:26;1.20;99.90
18103;DHT22;9178;51.120;6.192;2023-04-05T00:31:53;1.20;99.90
18103;DHT22;9178;51.120;6.192;2023-04-05T00:34:20;1.20;99.90
18103;DHT22;9178;51.120;6.192;2023-04-05T00:36:47;1.10;99.90
18103;DHT22;9178;51.120;6.192;2023-04-05T00:39:14;1.10;99.90
18103;DHT22;9178;51.120;6.192;2023-04-05T00:41:41;1.10;99.90
18103;DHT22;9178;51.120;6.192;2023-04-05T00:44:10;1.00;99.90
18103;DHT22;9178;51.120;6.192;2023-04-05T00:46:37;1.00;99.90
18103;DHT22;9178;51.120;6.192;2023-04-05T00:49:05;1.00;99.90
18103;DHT22;9178;51.120;6.192;2023-04-05T00:51:32;1.00;99.90
18103;DHT22;9178;51.120;6.192;2023-04-05T00:54:00;0.90;99.90
18103;DHT22;9178;51.120;6.192;2023-04-05T00:56:27;0.90;99.90
18103;DHT22;9178;51.120;6.192;2023-04-05T00:58:54;0.90;99.90
18103;DHT22;9178;51.120;6.192;2023-04-05T01:01:24;0.80;99.90
18103;DHT22;9178;51.120;6.192;2023-04-05T01:03:55;0.80;99.90
18103;DHT22;9178;51.120;6.192;2023-04-05T01:06:39;0.70;99.90
18103;DHT22;9178;51.120;6.192;2023-04-05T01:09:20;0.70;99.90
18103;DHT22;9178;51.120;6.192;2023-04-05T01:12:03;0.70;99.90
18103;DHT22;9178;51.120;6.192;2023-04-05T01:14:31;0.60;99.90
18103;DHT22;9178;51.120;6.192;2023-04-05T01:16:59;0.60;99.90
18103;DHT22;9178;51.120;6.192;2023-04-05T01:19:28;0.60;99.90
18103;DHT22;9178;51.120;6.192;2023-04-05T01:25:13;0.50;99.90
18103;DHT22;9178;51.120;6.192;2023-04-05T01:28:01;0.50;99.90
18103;DHT22;9178;51.120;6.192;2023-04-05T01:30:35;0.50;99.90
18103;DHT22;9178;51.120;6.192;2023-04-05T01:33:10;0.50;99.90
18103;DHT22;9178;51.120;6.192;2023-04-05T01:35:51;0.50;99.90
18103;DHT22;9178;51.120;6.192;2023-04-05T01:38:21;0.40;99.90
18103;DHT22;9178;51.120;6.192;2023-04-05T01:40:49;0.40;99.90
18103;DHT22;9178;51.120;6.192;2023-04-05T01:43:17;0.40;99.90
18103;DHT22;9178;51.120;6.192;2023-04-05T01:45:46;0.40;99.90
18103;DHT22;9178;51.120;6.192;2023-04-05T01:48:13;0.30;99.90
18103;DHT22;9178;51.120;6.192;2023-04-05T01:50:40;0.30;99.90
18103;DHT22;9178;51.120;6.192;2023-04-05T01:53:08;0.40;99.90
18103;DHT22;9178;51.120;6.192;2023-04-05T01:55:35;0.40;99.90
18103;DHT22;9178;51.120;6.192;2023-04-05T01:58:02;0.40;99.90
18103;DHT22;9178;51.120;6.192;2023-04-05T02:00:33;0.30;99.90
18103;DHT22;9178;51.120;6.192;2023-04-05T02:03:02;0.30;99.90
18103;DHT22;9178;51.120;6.192;2023-04-05T02:05:29;0.30;99.90
18103;DHT22;9178;51.120;6.192;2023-04-05T02:07:55;0.20;99.90
18103;DHT22;9178;51.120;6.192;2023-04-05T02:10:23;0.20;99.90
18103;DHT22;9178;51.120;6.192;2023-04-05T02:12:51;0.20;99.90
18103;DHT22;9178;51.120;6.192;2023-04-05T02:15:18;0.20;99.90
18103;DHT22;9178;51.120;6.192;2023-04-05T02:17:45;0.30;99.90
18103;DHT22;9178;51.120;6.192;2023-04-05T02:20:14;0.30;99.90
18103;DHT22;9178;51.120;6.192;2023-04-05T02:22:43;0.30;99.90
18103;DHT22;9178;51.120;6.192;2023-04-05T02:25:10;0.20;99.90
18103;DHT22;9178;51.120;6.192;2023-04-05T02:27:40;0.20;99.90
18103;DHT22;9178;51.120;6.192;2023-04-05T02:30:07;0.20;99.90
18103;DHT22;9178;51.120;6.192;2023-04-05T02:32:34;0.20;99.90
18103;DHT22;9178;51.120;6.192;2023-04-05T02:35:01;0.10;99.90
18103;DHT22;9178;51.120;6.192;2023-04-05T02:37:30;0.10;99.90
18103;DHT22;9178;51.120;6.192;2023-04-05T02:39:57;0.10;99.90
18103;DHT22;9178;51.120;6.192;2023-04-05T02:42:24;0.10;99.90
18103;DHT22;9178;51.120;6.192;2023-04-05T02:44:52;0.10;99.90
18103;DHT22;9178;51.120;6.192;2023-04-05T02:47:19;0.00;99.90
18103;DHT22;9178;51.120;6.192;2023-04-05T02:49:46;0.10;99.90
18103;DHT22;9178;51.120;6.192;2023-04-05T02:52:14;0.10;99.90
18103;DHT22;9178;51.120;6.192;2023-04-05T02:54:42;0.10;99.90
18103;DHT22;9178;51.120;6.192;2023-04-05T02:57:12;0.00;99.90
18103;DHT22;9178;51.120;6.192;2023-04-05T02:59:39;-0.10;99.90
18103;DHT22;9178;51.120;6.192;2023-04-05T03:02:08;0.00;99.90
18103;DHT22;9178;51.120;6.192;2023-04-05T03:04:35;0.00;99.90
18103;DHT22;9178;51.120;6.192;2023-04-05T03:07:03;0.00;99.90
18103;DHT22;9178;51.120;6.192;2023-04-05T03:09:31;-0.10;99.90
18103;DHT22;9178;51.120;6.192;2023-04-05T03:12:05;-0.10;99.90
18103;DHT22;9178;51.120;6.192;2023-04-05T03:14:33;-0.10;99.90
18103;DHT22;9178;51.120;6.192;2023-04-05T03:17:01;-0.10;99.90
18103;DHT22;9178;51.120;6.192;2023-04-05T03:19:28;-0.20;99.90
18103;DHT22;9178;51.120;6.192;2023-04-05T03:21:55;-0.20;99.90
18103;DHT22;9178;51.120;6.192;2023-04-05T03:24:23;-0.20;99.90
18103;DHT22;9178;51.120;6.192;2023-04-05T03:26:51;-0.30;99.90
18103;DHT22;9178;51.120;6.192;2023-04-05T03:29:20;-0.30;99.90
18103;DHT22;9178;51.120;6.192;2023-04-05T03:31:50;-0.40;99.90
18103;DHT22;9178;51.120;6.192;2023-04-05T03:34:24;-0.40;99.90
18103;DHT22;9178;51.120;6.192;2023-04-05T03:36:53;-0.40;99.90
18103;DHT22;9178;51.120;6.192;2023-04-05T03:39:20;-0.50;99.90
18103;DHT22;9178;51.120;6.192;2023-04-05T03:41:48;-0.50;99.90
18103;DHT22;9178;51.120;6.192;2023-04-05T03:44:16;-0.50;99.90
18103;DHT22;9178;51.120;6.192;2023-04-05T03:46:44;-0.60;99.90
18103;DHT22;9178;51.120;6.192;2023-04-05T03:49:11;-0.60;99.90
18103;DHT22;9178;51.120;6.192;2023-04-05T03:51:38;-0.60;99.90
18103;DHT22;9178;51.120;6.192;2023-04-05T03:54:05;-0.60;99.90
18103;DHT22;9178;51.120;6.192;2023-04-05T03:56:32;-0.70;99.90
18103;DHT22;9178;51.120;6.192;2023-04-05T03:58:59;-0.70;99.90
18103;DHT22;9178;51.120;6.192;2023-04-05T04:01:26;-0.70;99.90
18103;DHT22;9178;51.120;6.192;2023-04-05T04:03:54;-0.70;99.90
18103;DHT22;9178;51.120;6.192;2023-04-05T04:06:22;-0.70;99.90
18103;DHT22;9178;51.120;6.192;2023-04-05T04:08:51;-0.80;99.90
18103;DHT22;9178;51.120;6.192;2023-04-05T04:11:18;-0.80;99.90
18103;DHT22;9178;51.120;6.192;2023-04-05T04:13:45;-0.90;99.90
18103;DHT22;9178;51.120;6.192;2023-04-05T04:16:12;-0.80;99.90
18103;DHT22;9178;51.120;6.192;2023-04-05T04:18:39;-0.80;99.90
18103;DHT22;9178;51.120;6.192;2023-04-05T04:21:07;-0.90;99.90
18103;DHT22;9178;51.120;6.192;2023-04-05T04:23:35;-0.90;99.90
18103;DHT22;9178;51.120;6.192;2023-04-05T04:26:03;-0.90;99.90
18103;DHT22;9178;51.120;6.192;2023-04-05T04:28:30;-0.90;99.90
18103;DHT22;9178;51.120;6.192;2023-04-05T04:30:59;-0.90;99.90
18103;DHT22;9178;51.120;6.192;2023-04-05T04:33:29;-1.00;99.90
18103;DHT22;9178;51.120;6.192;2023-04-05T04:35:56;-1.00;99.90
18103;DHT22;9178;51.120;6.192;2023-04-05T04:38:24;-1.00;99.90
18103;DHT22;9178;51.120;6.192;2023-04-05T04:40:51;-1.00;99.90
18103;DHT22;9178;51.120;6.192;2023-04-05T04:43:22;-1.00;99.90
18103;DHT22;9178;51.120;6.192;2023-04-05T04:45:54;-1.00;99.90
18103;DHT22;9178;51.120;6.192;2023-04-05T04:48:20;-1.10;99.90
18103;DHT22;9178;51.120;6.192;2023-04-05T04:50:48;-1.10;99.90
18103;DHT22;9178;51.120;6.192;2023-04-05T04:53:15;-1.10;99.90
18103;DHT22;9178;51.120;6.192;2023-04-05T04:55:44;-1.10;99.90
18103;DHT22;9178;51.120;6.192;2023-04-05T04:58:16;-1.20;99.90
18103;DHT22;9178;51.120;6.192;2023-04-05T05:00:43;-1.20;99.90
18103;DHT22;9178;51.120;6.192;2023-04-05T05:03:11;-1.20;99.90
18103;DHT22;9178;51.120;6.192;2023-04-05T05:05:41;-1.20;99.90
18103;DHT22;9178;51.120;6.192;2023-04-05T05:08:08;-1.20;99.90
18103;DHT22;9178;51.120;6.192;2023-04-05T05:10:35;-1.20;99.90
18103;DHT22;9178;51.120;6.192;2023-04-05T05:13:03;-1.20;99.90
18103;DHT22;9178;51.120;6.192;2023-04-05T05:15:31;-1.20;99.90
18103;DHT22;9178;51.120;6.192;2023-04-05T05:17:58;-1.20;99.90
18103;DHT22;9178;51.120;6.192;2023-04-05T05:20:25;-1.20;99.90
18103;DHT22;9178;51.120;6.192;2023-04-05T05:22:53;-1.20;99.90
18103;DHT22;9178;51.120;6.192;2023-04-05T05:25:19;-1.20;99.90
18103;DHT22;9178;51.120;6.192;2023-04-05T05:27:47;-1.20;99.90
18103;DHT22;9178;51.120;6.192;2023-04-05T05:30:16;-1.10;99.90
18103;DHT22;9178;51.120;6.192;2023-04-05T05:32:43;-1.10;99.90
18103;DHT22;9178;51.120;6.192;2023-04-05T05:35:11;-1.10;99.90
18103;DHT22;9178;51.120;6.192;2023-04-05T05:37:38;-1.00;99.90
18103;DHT22;9178;51.120;6.192;2023-04-05T05:40:06;-1.00;99.90
18103;DHT22;9178;51.120;6.192;2023-04-05T05:42:33;-1.00;99.90
18103;DHT22;9178;51.120;6.192;2023-04-05T05:45:03;-0.90;99.90
18103;DHT22;9178;51.120;6.192;2023-04-05T05:47:31;-0.90;99.90
18103;DHT22;9178;51.120;6.192;2023-04-05T05:49:58;-0.90;99.90
18103;DHT22;9178;51.120;6.192;2023-04-05T05:52:28;-0.80;99.90
18103;DHT22;9178;51.120;6.192;2023-04-05T05:54:56;-0.70;99.90
18103;DHT22;9178;51.120;6.192;2023-04-05T05:57:23;-0.60;99.90
18103;DHT22;9178;51.120;6.192;2023-04-05T05:59:52;-0.40;99.90
18103;DHT22;9178;51.120;6.192;2023-04-05T06:02:19;-0.30;99.90
18103;DHT22;9178;51.120;6.192;2023-04-05T06:04:47;-0.20;99.90
18103;DHT22;9178;51.120;6.192;2023-04-05T06:07:14;-0.10;99.90
18103;DHT22;9178;51.120;6.192;2023-04-05T06:09:41;0.00;99.90
18103;DHT22;9178;51.120;6.192;2023-04-05T06:12:16;0.20;99.90
18103;DHT22;9178;51.120;6.192;2023-04-05T06:14:43;0.30;99.90
18103;DHT22;9178;51.120;6.192;2023-04-05T06:17:09;0.40;99.90
18103;DHT22;9178;51.120;6.192;2023-04-05T06:19:36;0.60;99.90
18103;DHT22;9178;51.120;6.192;2023-04-05T06:22:04;0.80;99.90
18103;DHT22;9178;51.120;6.192;2023-04-05T06:24:32;0.90;99.90
18103;DHT22;9178;51.120;6.192;2023-04-05T06:26:59;1.20;99.90
18103;DHT22;9178;51.120;6.192;2023-04-05T06:29:26;1.50;99.90
18103;DHT22;9178;51.120;6.192;2023-04-05T06:31:54;1.80;99.90
18103;DHT22;9178;51.120;6.192;2023-04-05T06:34:21;1.90;99.90
18103;DHT22;9178;51.120;6.192;2023-04-05T06:36:48;2.10;99.90
18103;DHT22;9178;51.120;6.192;2023-04-05T06:39:16;2.40;99.90
18103;DHT22;9178;51.120;6.192;2023-04-05T06:41:43;2.60;99.90
18103;DHT22;9178;51.120;6.192;2023-04-05T06:44:10;2.70;99.90
18103;DHT22;9178;51.120;6.192;2023-04-05T06:46:37;2.80;99.90
18103;DHT22;9178;51.120;6.192;2023-04-05T06:49:03;3.00;99.90
18103;DHT22;9178;51.120;6.192;2023-04-05T06:51:30;3.20;99.90
18103;DHT22;9178;51.120;6.192;2023-04-05T06:53:57;3.30;99.90
18103;DHT22;9178;51.120;6.192;2023-04-05T06:56:25;3.80;99.90
18103;DHT22;9178;51.120;6.192;2023-04-05T06:58:52;4.00;99.90
18103;DHT22;9178;51.120;6.192;2023-04-05T07:01:20;4.10;99.90
18103;DHT22;9178;51.120;6.192;2023-04-05T07:03:46;4.20;99.90
18103;DHT22;9178;51.120;6.192;2023-04-05T07:06:13;4.40;99.90
18103;DHT22;9178;51.120;6.192;2023-04-05T07:08:40;4.80;99.90
18103;DHT22;9178;51.120;6.192;2023-04-05T07:11:07;5.10;99.90
18103;DHT22;9178;51.120;6.192;2023-04-05T07:13:35;5.40;99.90
18103;DHT22;9178;51.120;6.192;2023-04-05T07:16:02;5.50;99.90
18103;DHT22;9178;51.120;6.192;2023-04-05T07:18:29;5.50;99.90
18103;DHT22;9178;51.120;6.192;2023-04-05T07:20:57;5.50;99.90
18103;DHT22;9178;51.120;6.192;2023-04-05T07:23:26;5.60;99.90
18103;DHT22;9178;51.120;6.192;2023-04-05T07:25:53;5.70;99.90
18103;DHT22;9178;51.120;6.192;2023-04-05T07:28:20;5.80;99.90
18103;DHT22;9178;51.120;6.192;2023-04-05T07:30:48;5.80;99.90
18103;DHT22;9178;51.120;6.192;2023-04-05T07:33:15;6.00;99.90
18103;DHT22;9178;51.120;6.192;2023-04-05T07:35:42;6.20;99.90
18103;DHT22;9178;51.120;6.192;2023-04-05T07:38:09;6.40;99.90
18103;DHT22;9178;51.120;6.192;2023-04-05T07:40:41;6.70;99.90
18103;DHT22;9178;51.120;6.192;2023-04-05T07:43:08;7.00;99.90
18103;DHT22;9178;51.120;6.192;2023-04-05T07:45:35;7.30;99.90
18103;DHT22;9178;51.120;6.192;2023-04-05T07:48:03;7.60;99.90
18103;DHT22;9178;51.120;6.192;2023-04-05T07:50:30;7.80;99.90
18103;DHT22;9178;51.120;6.192;2023-04-05T07:52:57;8.20;99.90
18103;DHT22;9178;51.120;6.192;2023-04-05T07:55:24;8.50;99.90
18103;DHT22;9178;51.120;6.192;2023-04-05T07:57:51;8.80;99.90
18103;DHT22;9178;51.120;6.192;2023-04-05T08:00:21;9.20;99.90
18103;DHT22;9178;51.120;6.192;2023-04-05T08:02:48;9.50;99.90
18103;DHT22;9178;51.120;6.192;2023-04-05T08:05:16;9.80;99.90
18103;DHT22;9178;51.120;6.192;2023-04-05T08:07:43;10.10;99.90
18103;DHT22;9178;51.120;6.192;2023-04-05T08:10:10;10.20;99.90
18103;DHT22;9178;51.120;6.192;2023-04-05T08:12:37;10.40;99.90
18103;DHT22;9178;51.120;6.192;2023-04-05T08:15:05;10.50;99.90
18103;DHT22;9178;51.120;6.192;2023-04-05T08:17:31;10.50;99.90
18103;DHT22;9178;51.120;6.192;2023-04-05T08:19:58;10.30;99.90
18103;DHT22;9178;51.120;6.192;2023-04-05T08:22:28;9.90;99.90
18103;DHT22;9178;51.120;6.192;2023-04-05T08:24:55;9.90;99.90
18103;DHT22;9178;51.120;6.192;2023-04-05T08:27:24;10.00;99.90
18103;DHT22;9178;51.120;6.192;2023-04-05T08:29:51;9.60;99.90
18103;DHT22;9178;51.120;6.192;2023-04-05T08:32:20;9.30;99.90
18103;DHT22;9178;51.120;6.192;2023-04-05T08:34:46;9.50;99.90
18103;DHT22;9178;51.120;6.192;2023-04-05T08:37:13;9.70;99.90
18103;DHT22;9178;51.120;6.192;2023-04-05T08:39:41;9.80;99.90
18103;DHT22;9178;51.120;6.192;2023-04-05T08:42:13;10.10;99.90
18103;DHT22;9178;51.120;6.192;2023-04-05T08:44:43;10.50;99.90
18103;DHT22;9178;51.120;6.192;2023-04-05T08:47:11;10.80;99.90
18103;DHT22;9178;51.120;6.192;2023-04-05T08:49:41;11.00;99.90
18103;DHT22;9178;51.120;6.192;2023-04-05T08:52:08;11.20;99.90
18103;DHT22;9178;51.120;6.192;2023-04-05T08:54:36;11.50;99.90
18103;DHT22;9178;51.120;6.192;2023-04-05T08:57:04;11.70;99.90
18103;DHT22;9178;51.120;6.192;2023-04-05T08:59:32;11.90;99.90
18103;DHT22;9178;51.120;6.192;2023-04-05T09:02:05;11.90;97.70
18103;DHT22;9178;51.120;6.192;2023-04-05T09:04:37;11.80;98.40
18103;DHT22;9178;51.120;6.192;2023-04-05T09:07:10;11.60;98.70
18103;DHT22;9178;51.120;6.192;2023-04-05T09:09:38;11.20;98.00
18103;DHT22;9178;51.120;6.192;2023-04-05T09:12:09;10.90;98.80
18103;DHT22;9178;51.120;6.192;2023-04-05T09:14:37;10.90;99.50
18103;DHT22;9178;51.120;6.192;2023-04-05T09:17:05;11.10;99.00
18103;DHT22;9178;51.120;6.192;2023-04-05T09:19:32;11.40;99.90
18103;DHT22;9178;51.120;6.192;2023-04-05T09:22:03;11.70;97.20
18103;DHT22;9178;51.120;6.192;2023-04-05T09:24:31;11.60;97.70
18103;DHT22;9178;51.120;6.192;2023-04-05T09:27:03;11.60;97.50
18103;DHT22;9178;51.120;6.192;2023-04-05T09:29:32;11.50;97.00
18103;DHT22;9178;51.120;6.192;2023-04-05T09:32:00;11.30;95.10
18103;DHT22;9178;51.120;6.192;2023-04-05T09:34:28;11.30;94.30
18103;DHT22;9178;51.120;6.192;2023-04-05T09:36:55;11.40;95.90
18103;DHT22;9178;51.120;6.192;2023-04-05T09:39:27;11.60;95.10
18103;DHT22;9178;51.120;6.192;2023-04-05T09:42:04;11.90;96.70
18103;DHT22;9178;51.120;6.192;2023-04-05T09:44:51;11.90;94.80
18103;DHT22;9178;51.120;6.192;2023-04-05T09:47:19;12.10;95.80
18103;DHT22;9178;51.120;6.192;2023-04-05T09:49:46;12.40;96.30
18103;DHT22;9178;51.120;6.192;2023-04-05T09:52:18;12.50;94.70
18103;DHT22;9178;51.120;6.192;2023-04-05T09:54:45;12.50;94.30
18103;DHT22;9178;51.120;6.192;2023-04-05T09:57:11;12.50;93.90
18103;DHT22;9178;51.120;6.192;2023-04-05T09:59:39;12.40;90.70
18103;DHT22;9178;51.120;6.192;2023-04-05T10:02:07;11.60;93.10
18103;DHT22;9178;51.120;6.192;2023-04-05T10:04:39;11.40;92.60
18103;DHT22;9178;51.120;6.192;2023-04-05T10:07:08;11.70;95.50
18103;DHT22;9178;51.120;6.192;2023-04-05T10:09:35;11.90;93.70
18103;DHT22;9178;51.120;6.192;2023-04-05T10:12:03;12.30;93.90
18103;DHT22;9178;51.120;6.192;2023-04-05T10:14:30;12.50;94.40
18103;DHT22;9178;51.120;6.192;2023-04-05T10:17:07;12.70;90.40
18103;DHT22;9178;51.120;6.192;2023-04-05T10:19:44;12.40;93.00
18103;DHT22;9178;51.120;6.192;2023-04-05T10:22:21;12.60;91.20
18103;DHT22;9178;51.120;6.192;2023-04-05T10:24:51;12.80;91.80
18103;DHT22;9178;51.120;6.192;2023-04-05T10:27:25;13.00;92.20
18103;DHT22;9178;51.120;6.192;2023-04-05T10:30:04;12.80;86.60
18103;DHT22;9178;51.120;6.192;2023-04-05T10:32:42;12.80;93.50
18103;DHT22;9178;51.120;6.192;2023-04-05T10:35:15;13.70;92.90
18103;DHT22;9178;51.120;6.192;2023-04-05T10:37:53;14.10;90.60
18103;DHT22;9178;51.120;6.192;2023-04-05T10:40:25;14.60;90.40
18103;DHT22;9178;51.120;6.192;2023-04-05T10:42:54;14.30;84.20
18103;DHT22;9178;51.120;6.192;2023-04-05T10:45:22;14.10;90.40
18103;DHT22;9178;51.120;6.192;2023-04-05T10:47:54;14.40;90.00
18103;DHT22;9178;51.120;6.192;2023-04-05T10:50:24;15.00;91.30
18103;DHT22;9178;51.120;6.192;2023-04-05T10:52:51;15.40;89.40
18103;DHT22;9178;51.120;6.192;2023-04-05T10:55:18;15.30;87.30
18103;DHT22;9178;51.120;6.192;2023-04-05T10:57:46;14.90;90.40
18103;DHT22;9178;51.120;6.192;2023-04-05T11:00:15;15.30;86.20
18103;DHT22;9178;51.120;6.192;2023-04-05T11:02:43;15.60;87.70
18103;DHT22;9178;51.120;6.192;2023-04-05T11:05:30;15.70;84.00
18103;DHT22;9178;51.120;6.192;2023-04-05T11:08:02;15.40;85.80
18103;DHT22;9178;51.120;6.192;2023-04-05T11:10:29;15.60;88.00
18103;DHT22;9178;51.120;6.192;2023-04-05T11:13:09;15.70;82.00
18103;DHT22;9178;51.120;6.192;2023-04-05T11:15:36;16.40;85.50
18103;DHT22;9178;51.120;6.192;2023-04-05T11:18:08;17.10;83.70
18103;DHT22;9178;51.120;6.192;2023-04-05T11:20:41;17.30;79.30
18103;DHT22;9178;51.120;6.192;2023-04-05T11:23:09;17.30;70.70
18103;DHT22;9178;51.120;6.192;2023-04-05T11:25:40;16.00;70.50
18103;DHT22;9178;51.120;6.192;2023-04-05T11:28:22;16.00;77.20
18103;DHT22;9178;51.120;6.192;2023-04-05T11:30:49;16.10;67.30
18103;DHT22;9178;51.120;6.192;2023-04-05T11:33:36;15.70;75.30
18103;DHT22;9178;51.120;6.192;2023-04-05T11:36:05;16.00;67.30
18103;DHT22;9178;51.120;6.192;2023-04-05T11:38:32;15.70;74.30
18103;DHT22;9178;51.120;6.192;2023-04-05T11:41:13;15.80;77.00
18103;DHT22;9178;51.120;6.192;2023-04-05T11:43:42;16.40;75.50
18103;DHT22;9178;51.120;6.192;2023-04-05T11:46:09;16.90;76.30
18103;DHT22;9178;51.120;6.192;2023-04-05T11:48:36;17.30;66.90
18103;DHT22;9178;51.120;6.192;2023-04-05T11:51:08;16.90;70.50
18103;DHT22;9178;51.120;6.192;2023-04-05T11:53:35;16.90;66.80
18103;DHT22;9178;51.120;6.192;2023-04-05T11:56:06;17.00;70.00
18103;DHT22;9178;51.120;6.192;2023-04-05T11:58:35;17.00;72.20
18103;DHT22;9178;51.120;6.192;2023-04-05T12:01:04;17.80;66.70
18103;DHT22;9178;51.120;6.192;2023-04-05T12:03:32;17.80;69.30
18103;DHT22;9178;51.120;6.192;2023-04-05T12:06:00;17.70;70.00
18103;DHT22;9178;51.120;6.192;2023-04-05T12:08:39;17.30;70.80
18103;DHT22;9178;51.120;6.192;2023-04-05T12:11:07;17.50;70.10
18103;DHT22;9178;51.120;6.192;2023-04-05T12:13:35;17.70;67.80
18103;DHT22;9178;51.120;6.192;2023-04-05T12:16:03;17.80;66.60
18103;DHT22;9178;51.120;6.192;2023-04-05T12:18:31;18.10;68.80
18103;DHT22;9178;51.120;6.192;2023-04-05T12:20:59;18.00;63.40
18103;DHT22;9178;51.120;6.192;2023-04-05T12:23:27;17.60;69.70
18103;DHT22;9178;51.120;6.192;2023-04-05T12:25:56;17.10;64.00
18103;DHT22;9178;51.120;6.192;2023-04-05T12:28:24;16.70;69.50
18103;DHT22;9178;51.120;6.192;2023-04-05T12:30:51;16.90;69.00
18103;DHT22;9178;51.120;6.192;2023-04-05T12:33:30;17.00;67.90
18103;DHT22;9178;51.120;6.192;2023-04-05T12:35:59;16.50;64.80
18103;DHT22;9178;51.120;6.192;2023-04-05T12:38:29;15.70;64.60
18103;DHT22;9178;51.120;6.192;2023-04-05T12:41:01;15.70;68.50
18103;DHT22;9178;51.120;6.192;2023-04-05T12:43:37;16.00;66.20
18103;DHT22;9178;51.120;6.192;2023-04-05T12:46:08;16.40;68.70
18103;DHT22;9178;51.120;6.192;2023-04-05T12:48:36;16.70;67.20
18103;DHT22;9178;51.120;6.192;2023-04-05T12:51:13;17.20;65.70
18103;DHT22;9178;51.120;6.192;2023-04-05T12:53:43;17.30;63.50
18103;DHT22;9178;51.120;6.192;2023-04-05T12:56:12;16.80;65.70
18103;DHT22;9178;51.120;6.192;2023-04-05T12:58:41;16.70;67.50
18103;DHT22;9178;51.120;6.192;2023-04-05T13:01:08;16.90;65.20
18103;DHT22;9178;51.120;6.192;2023-04-05T13:03:35;17.00;68.50
18103;DHT22;9178;51.120;6.192;2023-04-05T13:06:02;17.20;67.00
18103;DHT22;9178;51.120;6.192;2023-04-05T13:08:29;16.90;64.90
18103;DHT22;9178;51.120;6.192;2023-04-05T13:10:56;17.00;67.60
18103;DHT22;9178;51.120;6.192;2023-04-05T13:13:24;17.30;64.40
18103;DHT22;9178;51.120;6.192;2023-04-05T13:15:51;16.80;64.80
18103;DHT22;9178;51.120;6.192;2023-04-05T13:18:18;16.10;62.60
18103;DHT22;9178;51.120;6.192;2023-04-05T13:20:45;15.90;70.00
18103;DHT22;9178;51.120;6.192;2023-04-05T13:23:12;16.20;69.70
18103;DHT22;9178;51.120;6.192;2023-04-05T13:25:40;17.10;68.80
18103;DHT22;9178;51.120;6.192;2023-04-05T13:28:08;17.60;67.60
18103;DHT22;9178;51.120;6.192;2023-04-05T13:30:36;17.00;69.50
18103;DHT22;9178;51.120;6.192;2023-04-05T13:33:03;17.40;63.30
18103;DHT22;9178;51.120;6.192;2023-04-05T13:35:30;17.70;68.70
18103;DHT22;9178;51.120;6.192;2023-04-05T13:37:56;18.30;66.80
18103;DHT22;9178;51.120;6.192;2023-04-05T13:40:23;18.50;69.00
18103;DHT22;9178;51.120;6.192;2023-04-05T13:42:50;18.70;62.90
18103;DHT22;9178;51.120;6.192;2023-04-05T13:45:17;18.30;62.40
18103;DHT22;9178;51.120;6.192;2023-04-05T13:47:45;19.00;63.20
18103;DHT22;9178;51.120;6.192;2023-04-05T13:50:12;19.70;65.00
18103;DHT22;9178;51.120;6.192;2023-04-05T13:52:39;20.10;59.90
18103;DHT22;9178;51.120;6.192;2023-04-05T13:55:06;20.60;60.20
18103;DHT22;9178;51.120;6.192;2023-04-05T13:57:33;20.70;58.90
18103;DHT22;9178;51.120;6.192;2023-04-05T14:00:00;21.10;63.10
18103;DHT22;9178;51.120;6.192;2023-04-05T14:02:27;21.60;59.60
18103;DHT22;9178;51.120;6.192;2023-04-05T14:04:55;21.10;56.10
18103;DHT22;9178;51.120;6.192;2023-04-05T14:07:22;21.10;58.30
18103;DHT22;9178;51.120;6.192;2023-04-05T14:09:49;20.30;58.60
18103;DHT22;9178;51.120;6.192;2023-04-05T14:12:16;20.10;59.80
18103;DHT22;9178;51.120;6.192;2023-04-05T14:14:43;19.70;56.20
18103;DHT22;9178;51.120;6.192;2023-04-05T14:17:10;19.40;56.50
18103;DHT22;9178;51.120;6.192;2023-04-05T14:19:37;18.70;55.60
18103;DHT22;9178;51.120;6.192;2023-04-05T14:22:06;17.50;57.20
18103;DHT22;9178;51.120;6.192;2023-04-05T14:24:33;17.10;60.90
18103;DHT22;9178;51.120;6.192;2023-04-05T14:27:00;17.30;61.90
18103;DHT22;9178;51.120;6.192;2023-04-05T14:29:27;18.00;64.50
18103;DHT22;9178;51.120;6.192;2023-04-05T14:31:54;18.30;61.90
18103;DHT22;9178;51.120;6.192;2023-04-05T14:34:21;18.50;57.50
18103;DHT22;9178;51.120;6.192;2023-04-05T14:36:48;18.00;61.70
18103;DHT22;9178;51.120;6.192;2023-04-05T14:39:17;18.30;62.10
18103;DHT22;9178;51.120;6.192;2023-04-05T14:41:44;18.60;62.30
18103;DHT22;9178;51.120;6.192;2023-04-05T14:44:16;18.60;61.50
18103;DHT22;9178;51.120;6.192;2023-04-05T14:46:43;18.40;59.30
18103;DHT22;9178;51.120;6.192;2023-04-05T14:49:10;18.70;61.70
18103;DHT22;9178;51.120;6.192;2023-04-05T14:51:37;18.30;60.60
18103;DHT22;9178;51.120;6.192;2023-04-05T14:54:05;18.10;59.40
18103;DHT22;9178;51.120;6.192;2023-04-05T14:56:33;17.90;58.70
18103;DHT22;9178;51.120;6.192;2023-04-05T14:59:00;17.80;59.50
18103;DHT22;9178;51.120;6.192;2023-04-05T15:01:28;17.80;62.70
18103;DHT22;9178;51.120;6.192;2023-04-05T15:03:54;18.10;62.10
18103;DHT22;9178;51.120;6.192;2023-04-05T15:06:21;18.50;63.20
18103;DHT22;9178;51.120;6.192;2023-04-05T15:08:48;18.60;60.70
18103;DHT22;9178;51.120;6.192;2023-04-05T15:11:15;18.90;64.30
18103;DHT22;9178;51.120;6.192;2023-04-05T15:13:44;18.60;58.90
18103;DHT22;9178;51.120;6.192;2023-04-05T15:16:11;18.10;62.80
18103;DHT22;9178;51.120;6.192;2023-04-05T15:18:38;18.20;63.30
18103;DHT22;9178;51.120;6.192;2023-04-05T15:21:05;18.40;59.20
18103;DHT22;9178;51.120;6.192;2023-04-05T15:23:32;18.40;59.30
18103;DHT22;9178;51.120;6.192;2023-04-05T15:25:59;18.30;58.30
18103;DHT22;9178;51.120;6.192;2023-04-05T15:28:26;18.10;61.20
18103;DHT22;9178;51.120;6.192;2023-04-05T15:30:54;17.60;60.20
18103;DHT22;9178;51.120;6.192;2023-04-05T15:33:21;17.30;59.10
18103;DHT22;9178;51.120;6.192;2023-04-05T15:35:48;17.40;59.50
18103;DHT22;9178;51.120;6.192;2023-04-05T15:38:15;17.20;57.70
18103;DHT22;9178;51.120;6.192;2023-04-05T15:40:45;17.00;62.10
18103;DHT22;9178;51.120;6.192;2023-04-05T15:43:14;16.90;60.10
18103;DHT22;9178;51.120;6.192;2023-04-05T15:45:41;16.70;61.30
18103;DHT22;9178;51.120;6.192;2023-04-05T15:48:09;16.90;59.20
18103;DHT22;9178;51.120;6.192;2023-04-05T15:50:38;17.00;59.60
18103;DHT22;9178;51.120;6.192;2023-04-05T15:53:06;17.10;60.90
18103;DHT22;9178;51.120;6.192;2023-04-05T15:55:33;17.00;59.00
18103;DHT22;9178;51.120;6.192;2023-04-05T15:58:00;16.60;62.50
18103;DHT22;9178;51.120;6.192;2023-04-05T16:00:27;16.40;62.60
18103;DHT22;9178;51.120;6.192;2023-04-05T16:02:54;16.30;60.70
18103;DHT22;9178;51.120;6.192;2023-04-05T16:05:25;16.20;60.10